aviador You're here:

ZSHC Decoded Metar

HANGZHOU in CHINA
Report Time2018-05-28 09:30:00
UTC Time2018-05-28 09:48:20
Flight Rules mvfr MVFR
Wind240° at 4 kt
W.Decomp.*RWY 25: 4.0 kt HW 0.4 kt LCW
W.Rank240° ranks 6
Current wind is below 240° avg. (4.6)
Visibility7000 m
Phenomena:N/A
Clouds:Few 033 Hf
Expected CloudBase > 3,200 ft AGL from Temp-Dew spread
CeilingNone
Temp28°C (ISA +13)
Dew Point20°C (62% RH)
Heat Index29.7°C
QNH1008 hPa
Density Alt2,146 ft
Elevation141 ft
Report Wrong Elevation
Raw Report
METAR ZSHC 280930Z 24002MPS 7000 FEW033 28/20 Q1008 NOSIG=

Extra information for ZSHC:More info

Metar Taf Metar & Taf Last 4 Metars F.Rules Stats Wind Profile Meteogram Temp Stats Airport Information Weather charts Add Link Nearby VenuesMetar ALERT Operation Metar Decoded Social comments